createdAt,value
2023-03-31T00:00:53.591Z,99174.34
2023-03-31T00:03:22.007Z,99171.81
2023-03-31T00:05:54.519Z,99172.35
2023-03-31T00:08:22.465Z,99171.66
2023-03-31T00:10:50.556Z,99171.52
2023-03-31T00:13:18.502Z,99172.00
2023-03-31T00:15:46.460Z,99168.55
2023-03-31T00:18:14.418Z,99169.96
2023-03-31T00:20:42.311Z,99168.91
2023-03-31T00:23:14.010Z,99172.83
2023-03-31T00:25:44.722Z,99172.60
2023-03-31T00:28:12.611Z,99170.54
2023-03-31T00:30:40.598Z,99173.73
2023-03-31T00:33:09.022Z,99177.30
2023-03-31T00:35:38.732Z,99175.75
2023-03-31T00:38:08.370Z,99176.90
2023-03-31T00:40:36.359Z,99173.98
2023-03-31T00:43:10.488Z,99173.98
2023-03-31T00:45:39.753Z,99169.70
2023-03-31T00:48:14.783Z,99172.42
2023-03-31T00:50:50.330Z,99172.55
2023-03-31T00:53:22.338Z,99171.70
2023-03-31T00:55:54.351Z,99167.27
2023-03-31T00:58:27.486Z,99164.18
2023-03-31T01:00:57.578Z,99162.80
2023-03-31T01:03:26.017Z,99167.39
2023-03-31T01:05:59.721Z,99164.64
2023-03-31T01:08:28.805Z,99167.70
2023-03-31T01:11:00.201Z,99168.19
2023-03-31T01:13:29.870Z,99167.65
2023-03-31T01:15:57.817Z,99162.52
2023-03-31T01:18:29.137Z,99158.91
2023-03-31T01:21:32.765Z,99159.24
2023-03-31T01:24:37.378Z,99157.38
2023-03-31T01:27:30.868Z,99162.17
2023-03-31T01:30:25.010Z,99159.11
2023-03-31T01:33:20.064Z,99159.83
2023-03-31T01:36:20.580Z,99155.42
2023-03-31T01:39:15.702Z,99152.22
2023-03-31T01:41:53.562Z,99150.88
2023-03-31T01:44:31.713Z,99151.74
2023-03-31T01:47:05.342Z,99155.05
2023-03-31T01:49:45.251Z,99157.80
2023-03-31T01:52:22.333Z,99160.76
2023-03-31T01:55:00.560Z,99165.08
2023-03-31T01:57:32.643Z,99162.84
2023-03-31T02:00:05.258Z,99164.41
2023-03-31T02:02:46.620Z,99168.03
2023-03-31T02:05:18.549Z,99166.38
2023-03-31T02:07:51.120Z,99164.73
2023-03-31T02:10:22.236Z,99164.60
2023-03-31T02:12:51.736Z,99162.90
2023-03-31T02:15:26.925Z,99160.87
2023-03-31T02:17:57.493Z,99162.10
2023-03-31T02:20:27.884Z,99164.70
2023-03-31T02:22:57.509Z,99167.29
2023-03-31T02:25:33.288Z,99170.39
2023-03-31T02:28:07.483Z,99172.47
2023-03-31T02:30:43.253Z,99170.23
2023-03-31T02:33:11.336Z,99169.53
2023-03-31T02:35:39.443Z,99168.17
2023-03-31T02:38:08.335Z,99168.22
2023-03-31T02:40:37.366Z,99163.96
2023-03-31T02:43:05.475Z,99159.23
2023-03-31T02:45:42.972Z,99160.78
2023-03-31T02:48:15.790Z,99161.32
2023-03-31T02:51:01.663Z,99162.85
2023-03-31T02:53:43.510Z,99162.72
2023-03-31T02:56:28.319Z,99165.14
2023-03-31T02:59:10.992Z,99166.54
2023-03-31T03:01:49.167Z,99166.40
2023-03-31T03:04:33.560Z,99169.02
2023-03-31T03:07:09.444Z,99168.98
2023-03-31T03:09:47.525Z,99169.33
2023-03-31T03:12:22.411Z,99168.98
2023-03-31T03:14:57.869Z,99173.95
2023-03-31T03:17:29.990Z,99177.21
2023-03-31T03:20:01.473Z,99176.90
2023-03-31T03:22:29.414Z,99181.88
2023-03-31T03:24:57.348Z,99181.21
2023-03-31T03:27:25.292Z,99187.70
2023-03-31T03:29:53.279Z,99187.71
2023-03-31T03:32:21.185Z,99190.98
2023-03-31T03:34:49.142Z,99193.55
2023-03-31T03:37:17.090Z,99192.73
2023-03-31T03:39:45.027Z,99193.61
2023-03-31T03:42:12.973Z,99196.21
2023-03-31T03:44:40.916Z,99193.31
2023-03-31T03:47:08.852Z,99194.53
2023-03-31T03:49:36.803Z,99196.96
2023-03-31T03:52:05.327Z,99196.34
2023-03-31T03:54:33.360Z,99201.83
2023-03-31T03:57:01.506Z,99199.67
2023-03-31T03:59:29.501Z,99203.98
2023-03-31T04:01:57.535Z,99205.61
2023-03-31T04:04:25.653Z,99203.08
2023-03-31T04:06:55.285Z,99198.02
2023-03-31T04:09:24.296Z,99197.42
2023-03-31T04:11:52.423Z,99203.30
2023-03-31T04:14:20.936Z,99204.39
2023-03-31T04:16:49.248Z,99202.62
2023-03-31T04:19:17.893Z,99204.03
2023-03-31T04:21:50.969Z,99205.16
2023-03-31T04:24:21.611Z,99203.20
2023-03-31T04:26:50.358Z,99199.55
2023-03-31T04:29:20.009Z,99200.35
2023-03-31T04:31:52.129Z,99199.62
2023-03-31T04:34:21.584Z,99193.39
2023-03-31T04:36:49.706Z,99191.95
2023-03-31T04:39:26.095Z,99197.29
2023-03-31T04:41:54.415Z,99196.34
2023-03-31T04:44:25.450Z,99191.41
2023-03-31T04:46:53.957Z,99191.89
2023-03-31T04:49:22.063Z,99187.23
2023-03-31T04:51:50.283Z,99185.01
2023-03-31T04:54:18.815Z,99187.86
2023-03-31T04:56:47.124Z,99183.35
2023-03-31T04:59:15.659Z,99184.50
2023-03-31T05:01:45.330Z,99180.50
2023-03-31T05:04:14.371Z,99182.88
2023-03-31T05:06:42.749Z,99181.67
2023-03-31T05:09:10.900Z,99176.02
2023-03-31T05:11:39.267Z,99175.13
2023-03-31T05:14:08.578Z,99177.59
2023-03-31T05:16:37.426Z,99177.50
2023-03-31T05:19:06.448Z,99175.54
2023-03-31T05:21:35.056Z,99178.13
2023-03-31T05:24:04.169Z,99176.14
2023-03-31T05:26:32.117Z,99170.73
2023-03-31T05:29:00.069Z,99168.25
2023-03-31T05:31:28.176Z,99162.73
2023-03-31T05:33:56.132Z,99165.39
2023-03-31T05:36:38.303Z,99160.88
2023-03-31T05:39:10.117Z,99162.25
2023-03-31T05:41:38.418Z,99157.72
2023-03-31T05:44:06.739Z,99156.90
2023-03-31T05:46:34.903Z,99154.52
2023-03-31T05:49:03.385Z,99157.91
2023-03-31T05:51:31.503Z,99161.61
2023-03-31T05:53:59.885Z,99161.51
2023-03-31T05:56:28.285Z,99160.09
2023-03-31T05:58:57.591Z,99156.02
2023-03-31T06:01:25.877Z,99150.50
2023-03-31T06:03:54.201Z,99156.86
2023-03-31T06:06:22.946Z,99152.96
2023-03-31T06:08:51.208Z,99154.88
2023-03-31T06:11:21.255Z,99148.94
2023-03-31T06:13:52.248Z,99153.52
2023-03-31T06:16:20.225Z,99154.67
2023-03-31T06:18:52.954Z,99148.67
2023-03-31T06:21:25.252Z,99144.59
2023-03-31T06:23:55.550Z,99148.05
2023-03-31T06:26:23.785Z,99148.87
2023-03-31T06:28:52.496Z,99151.79
2023-03-31T06:31:23.631Z,99151.37
2023-03-31T06:36:35.697Z,99155.52
2023-03-31T06:39:03.969Z,99158.17
2023-03-31T06:41:32.001Z,99154.71
2023-03-31T06:44:23.973Z,99147.69
2023-03-31T06:46:52.604Z,99140.39
2023-03-31T06:49:21.071Z,99143.51
2023-03-31T06:51:49.010Z,99144.33
2023-03-31T06:54:16.977Z,99140.05
2023-03-31T06:56:55.028Z,99140.63
2023-03-31T06:59:25.813Z,99136.80
2023-03-31T07:01:53.911Z,99135.29
2023-03-31T07:04:22.074Z,99135.73
2023-03-31T07:06:50.722Z,99136.95
2023-03-31T07:09:22.702Z,99141.57
2023-03-31T07:11:50.841Z,99144.08
2023-03-31T07:14:22.455Z,99141.61
2023-03-31T07:16:50.711Z,99144.02
2023-03-31T07:19:19.152Z,99154.55
2023-03-31T07:21:53.277Z,99151.75
2023-03-31T07:24:21.659Z,99150.98
2023-03-31T07:26:49.716Z,99147.44
2023-03-31T07:29:17.961Z,99148.85
2023-03-31T07:31:47.559Z,99144.95
2023-03-31T07:34:15.776Z,99141.56
2023-03-31T07:36:43.857Z,99133.63
2023-03-31T07:39:11.835Z,99136.67
2023-03-31T07:41:40.163Z,99135.92
2023-03-31T07:44:09.411Z,99134.49
2023-03-31T07:46:37.474Z,99131.05
2023-03-31T07:49:06.833Z,99130.27
2023-03-31T07:51:35.509Z,99132.95
2023-03-31T07:54:03.637Z,99127.57
2023-03-31T07:56:31.809Z,99122.59
2023-03-31T07:59:02.354Z,99124.25
2023-03-31T08:01:31.855Z,99120.82
2023-03-31T08:04:00.585Z,99117.44
2023-03-31T08:06:29.355Z,99112.89
2023-03-31T08:08:58.662Z,99110.70
2023-03-31T08:11:27.199Z,99110.83
2023-03-31T08:13:55.868Z,99108.27
2023-03-31T08:16:24.062Z,99102.98
2023-03-31T08:18:52.650Z,99105.52
2023-03-31T08:21:23.765Z,99105.42
2023-03-31T08:23:55.044Z,99103.80
2023-03-31T08:26:24.904Z,99103.82
2023-03-31T08:29:03.521Z,99106.11
2023-03-31T08:31:31.598Z,99100.83
2023-03-31T08:34:04.432Z,99095.52
2023-03-31T08:36:37.853Z,99093.06
2023-03-31T08:39:06.864Z,99082.92
2023-03-31T08:41:44.354Z,99080.13
2023-03-31T08:44:21.148Z,99073.93
2023-03-31T08:46:52.328Z,99068.35
2023-03-31T08:49:22.930Z,99065.00
2023-03-31T08:51:55.803Z,99061.10
2023-03-31T08:54:33.538Z,99063.54
2023-03-31T08:57:06.064Z,99064.58
2023-03-31T08:59:38.463Z,99060.96
2023-03-31T09:02:19.157Z,99060.56
2023-03-31T09:05:22.524Z,99055.64
2023-03-31T09:07:59.555Z,99054.86
2023-03-31T09:10:51.754Z,99055.37
2023-03-31T09:13:35.777Z,99050.85
2023-03-31T09:16:09.637Z,99048.17
2023-03-31T09:18:40.078Z,99047.54
2023-03-31T09:21:17.954Z,99043.91
2023-03-31T09:23:49.677Z,99047.02
2023-03-31T09:26:25.952Z,99041.04
2023-03-31T09:28:57.785Z,99043.52
2023-03-31T09:31:27.016Z,99045.23
2023-03-31T09:33:59.363Z,99045.43
2023-03-31T09:36:28.098Z,99045.35
2023-03-31T09:38:56.285Z,99042.85
2023-03-31T09:41:25.421Z,99043.30
2023-03-31T09:43:53.654Z,99039.52
2023-03-31T09:46:29.810Z,99037.64
2023-03-31T09:49:06.885Z,99041.85
2023-03-31T09:51:38.351Z,99042.33
2023-03-31T09:54:21.482Z,99032.73
2023-03-31T09:56:53.504Z,99026.24
2023-03-31T09:59:23.978Z,99033.50
2023-03-31T10:01:56.383Z,99028.83
2023-03-31T10:04:28.008Z,99024.34
2023-03-31T10:06:57.965Z,99022.05
2023-03-31T10:09:29.930Z,99012.87
2023-03-31T10:12:00.134Z,99009.25
2023-03-31T10:14:42.180Z,99004.77
2023-03-31T10:17:15.734Z,99004.38
2023-03-31T10:19:50.785Z,98998.48
2023-03-31T10:22:26.722Z,98994.48
2023-03-31T10:25:00.393Z,98984.54
2023-03-31T10:27:31.370Z,98987.98
2023-03-31T10:30:01.098Z,98984.23
2023-03-31T10:32:32.653Z,98988.95
2023-03-31T10:35:13.664Z,98982.81
2023-03-31T10:37:55.717Z,98979.02
2023-03-31T10:40:25.539Z,98974.02
2023-03-31T10:43:03.297Z,98968.77
2023-03-31T10:45:38.382Z,98967.91
2023-03-31T10:48:17.493Z,98968.27
2023-03-31T10:50:45.850Z,98966.88
2023-03-31T10:53:15.880Z,98966.48
2023-03-31T10:55:52.752Z,98967.52
2023-03-31T10:58:36.892Z,98965.07
2023-03-31T11:01:18.638Z,98959.48
2023-03-31T11:04:18.914Z,98955.48
2023-03-31T11:06:56.868Z,98949.59
2023-03-31T11:09:40.643Z,98951.88
2023-03-31T11:12:18.624Z,98954.30
2023-03-31T11:15:01.699Z,98948.63
2023-03-31T11:17:41.650Z,98951.79
2023-03-31T11:20:21.663Z,98945.66
2023-03-31T11:23:00.247Z,98940.20
2023-03-31T11:25:38.695Z,98942.27
2023-03-31T11:28:24.461Z,98937.51
2023-03-31T11:31:06.538Z,98928.81
2023-03-31T11:34:11.284Z,98927.45
2023-03-31T11:37:03.677Z,98923.81
2023-03-31T11:43:27.894Z,98916.30
2023-03-31T11:46:09.901Z,98914.28
2023-03-31T11:48:44.198Z,98917.92
2023-03-31T11:51:19.341Z,98913.83
2023-03-31T11:53:48.614Z,98910.93
2023-03-31T11:56:17.615Z,98908.95
2023-03-31T11:58:49.289Z,98904.27
2023-03-31T12:01:26.044Z,98901.64
2023-03-31T12:04:05.408Z,98887.73
2023-03-31T12:06:39.706Z,98886.90
2023-03-31T12:09:17.121Z,98886.32
2023-03-31T12:11:52.186Z,98884.84
2023-03-31T12:14:25.036Z,98879.39
2023-03-31T12:16:55.564Z,98872.98
2023-03-31T12:19:28.635Z,98870.02
2023-03-31T12:22:04.195Z,98867.48
2023-03-31T12:24:33.700Z,98868.39
2023-03-31T12:27:11.613Z,98866.66
2023-03-31T12:29:45.520Z,98863.39
2023-03-31T12:32:17.989Z,98857.32
2023-03-31T12:34:51.489Z,98854.71
2023-03-31T12:37:50.325Z,98851.25
2023-03-31T12:40:30.098Z,98844.89
2023-03-31T12:43:36.928Z,98843.95
2023-03-31T12:46:18.716Z,98844.20
2023-03-31T12:49:01.662Z,98846.72
2023-03-31T12:51:46.151Z,98842.01
2023-03-31T12:54:27.689Z,98835.67
2023-03-31T12:57:21.592Z,98830.67
2023-03-31T13:00:20.287Z,98826.89
2023-03-31T13:02:49.613Z,98823.52
2023-03-31T13:05:49.693Z,98817.97
2023-03-31T13:08:52.773Z,98815.41
2023-03-31T13:11:23.703Z,98814.79
2023-03-31T13:14:01.778Z,98807.37
2023-03-31T13:16:31.017Z,98805.67
2023-03-31T13:18:59.684Z,98801.52
2023-03-31T13:21:28.299Z,98797.23
2023-03-31T13:24:01.075Z,98797.42
2023-03-31T13:26:45.841Z,98792.51
2023-03-31T13:29:25.637Z,98788.48
2023-03-31T13:32:20.241Z,98786.55
2023-03-31T13:34:53.582Z,98783.89
2023-03-31T13:37:44.290Z,98783.32
2023-03-31T13:40:30.635Z,98785.92
2023-03-31T13:43:27.693Z,98781.88
2023-03-31T13:46:09.777Z,98777.02
2023-03-31T13:48:43.840Z,98771.54
2023-03-31T13:51:24.672Z,98773.05
2023-03-31T13:54:26.705Z,98764.44
2023-03-31T13:57:24.412Z,98761.35
2023-03-31T14:00:21.179Z,98759.38
2023-03-31T14:03:13.310Z,98756.23
2023-03-31T14:05:45.272Z,98752.70
2023-03-31T14:08:19.993Z,98753.73
2023-03-31T14:10:54.234Z,98742.81
2023-03-31T14:13:25.200Z,98736.59
2023-03-31T14:15:57.135Z,98734.65
2023-03-31T14:19:03.356Z,98729.05
2023-03-31T14:24:50.312Z,98728.27
2023-03-31T14:27:30.293Z,98726.36
2023-03-31T14:30:06.290Z,98725.80
2023-03-31T14:32:42.975Z,98722.17
2023-03-31T14:35:28.231Z,98719.99
2023-03-31T14:37:57.292Z,98721.39
2023-03-31T14:40:25.828Z,98720.16
2023-03-31T14:42:53.887Z,98716.16
2023-03-31T14:45:24.567Z,98707.20
2023-03-31T14:47:57.773Z,98707.30
2023-03-31T14:50:33.320Z,98702.34
2023-03-31T14:53:01.764Z,98703.33
2023-03-31T14:55:49.771Z,98702.77
2023-03-31T14:58:27.003Z,98704.30
2023-03-31T15:00:55.718Z,98702.55
2023-03-31T15:03:26.847Z,98697.89
2023-03-31T15:05:58.568Z,98692.92
2023-03-31T15:08:30.040Z,98688.95
2023-03-31T15:11:11.965Z,98690.10
2023-03-31T15:13:56.761Z,98688.70
2023-03-31T15:16:41.369Z,98688.67
2023-03-31T15:19:15.651Z,98682.90
2023-03-31T15:21:45.634Z,98684.21
2023-03-31T15:24:14.857Z,98680.85
2023-03-31T15:26:50.052Z,98677.07
2023-03-31T15:29:20.430Z,98675.14
2023-03-31T15:31:49.566Z,98671.33
2023-03-31T15:34:27.364Z,98674.92
2023-03-31T15:36:57.234Z,98680.94
2023-03-31T15:39:28.330Z,98687.52
2023-03-31T15:42:04.668Z,98689.16
2023-03-31T15:44:44.396Z,98683.46
2023-03-31T15:47:19.838Z,98682.09
2023-03-31T15:49:54.272Z,98687.55
2023-03-31T15:52:54.118Z,98686.56
2023-03-31T15:58:15.852Z,98677.65
2023-03-31T16:00:47.613Z,98669.64
2023-03-31T16:03:24.150Z,98664.56
2023-03-31T16:05:56.491Z,98663.27
2023-03-31T16:08:30.860Z,98661.14
2023-03-31T16:11:05.819Z,98655.73
2023-03-31T16:16:14.322Z,98648.48
2023-03-31T16:18:46.491Z,98648.45
2023-03-31T16:21:20.448Z,98646.73
2023-03-31T16:23:52.886Z,98644.46
2023-03-31T16:26:22.972Z,98639.56
2023-03-31T16:28:53.764Z,98635.25
2023-03-31T16:31:34.808Z,98630.32
2023-03-31T16:34:05.141Z,98628.64
2023-03-31T16:36:33.528Z,98625.85
2023-03-31T16:39:04.528Z,98629.39
2023-03-31T16:41:33.900Z,98625.80
2023-03-31T16:44:05.699Z,98626.29
2023-03-31T16:46:33.850Z,98621.30
2023-03-31T16:49:01.926Z,98619.17
2023-03-31T16:51:29.915Z,98616.16
2023-03-31T16:53:59.397Z,98617.38
2023-03-31T16:56:27.646Z,98612.44
2023-03-31T16:58:55.686Z,98614.48
2023-03-31T17:01:23.744Z,98613.04
2023-03-31T17:03:51.932Z,98609.52
2023-03-31T17:06:20.071Z,98609.91
2023-03-31T17:09:02.974Z,98605.74
2023-03-31T17:11:33.762Z,98606.27
2023-03-31T17:14:04.660Z,98600.23
2023-03-31T17:16:45.007Z,98602.33
2023-03-31T17:19:20.051Z,98601.19
2023-03-31T17:21:48.786Z,98598.58
2023-03-31T17:24:16.860Z,98592.02
2023-03-31T17:26:45.085Z,98593.98
2023-03-31T17:29:16.864Z,98592.70
2023-03-31T17:31:44.962Z,98594.30
2023-03-31T17:34:14.863Z,98605.55
2023-03-31T17:36:50.197Z,98645.61
2023-03-31T17:39:18.221Z,98644.08
2023-03-31T17:41:46.141Z,98639.39
2023-03-31T17:44:14.925Z,98639.52
2023-03-31T17:46:43.324Z,98640.30
2023-03-31T17:49:11.330Z,98641.19
2023-03-31T17:51:40.043Z,98644.10
2023-03-31T17:54:07.991Z,98643.92
2023-03-31T17:56:36.138Z,98642.16
2023-03-31T17:59:04.832Z,98641.05
2023-03-31T18:01:34.771Z,98644.59
2023-03-31T18:04:06.850Z,98645.29
2023-03-31T18:06:35.229Z,98639.90
2023-03-31T18:09:05.460Z,98633.92
2023-03-31T18:11:40.970Z,98632.41
2023-03-31T18:14:09.372Z,98626.83
2023-03-31T18:16:38.133Z,98628.09
2023-03-31T18:19:06.772Z,98626.63
2023-03-31T18:21:44.899Z,98618.89
2023-03-31T18:24:16.322Z,98618.48
2023-03-31T18:26:47.765Z,98615.30
2023-03-31T18:29:18.110Z,98610.54
2023-03-31T18:31:48.227Z,98610.98
2023-03-31T18:34:41.249Z,98614.20
2023-03-31T18:37:10.171Z,98608.17
2023-03-31T18:39:38.642Z,98608.11
2023-03-31T18:42:07.274Z,98605.52
2023-03-31T18:44:35.936Z,98604.81
2023-03-31T18:47:04.517Z,98600.67
2023-03-31T18:49:33.169Z,98598.23
2023-03-31T18:52:03.645Z,98594.06
2023-03-31T18:54:31.629Z,98593.33
2023-03-31T18:57:01.144Z,98590.02
2023-03-31T18:59:29.106Z,98587.52
2023-03-31T19:01:57.163Z,98587.63
2023-03-31T19:04:26.359Z,98582.05
2023-03-31T19:06:55.368Z,98581.92
2023-03-31T19:09:25.415Z,98576.58
2023-03-31T19:11:53.773Z,98573.15
2023-03-31T19:14:21.851Z,98568.98
2023-03-31T19:16:50.237Z,98564.25
2023-03-31T19:19:18.268Z,98563.94
2023-03-31T19:21:47.762Z,98560.77
2023-03-31T19:24:16.334Z,98558.94
2023-03-31T19:26:44.278Z,98556.48
2023-03-31T19:29:12.236Z,98556.28
2023-03-31T19:31:40.846Z,98552.36
2023-03-31T19:34:11.155Z,98549.10
2023-03-31T19:36:39.780Z,98548.48
2023-03-31T19:39:07.807Z,98546.89
2023-03-31T19:41:35.890Z,98543.38
2023-03-31T19:44:03.878Z,98542.64
2023-03-31T19:46:32.559Z,98537.02
2023-03-31T19:49:00.819Z,98531.14
2023-03-31T19:51:28.934Z,98528.45
2023-03-31T19:53:57.848Z,98529.11
2023-03-31T19:56:26.465Z,98526.92
2023-03-31T19:58:54.409Z,98519.42
2023-03-31T20:01:25.099Z,98511.61
2023-03-31T20:03:54.115Z,98504.26
2023-03-31T20:06:24.540Z,98502.36
2023-03-31T20:08:54.933Z,98494.61
2023-03-31T20:11:25.396Z,98494.23
2023-03-31T20:13:53.743Z,98496.87
2023-03-31T20:16:23.995Z,98497.31
2023-03-31T20:18:54.351Z,98505.12
2023-03-31T20:21:25.238Z,98508.51
2023-03-31T20:23:54.188Z,98505.21
2023-03-31T20:26:24.508Z,98509.59
2023-03-31T20:28:54.419Z,98507.85
2023-03-31T20:31:23.948Z,98509.98
2023-03-31T20:33:53.759Z,98508.27
2023-03-31T20:36:23.714Z,98505.13
2023-03-31T20:38:53.344Z,98506.96
2023-03-31T20:41:23.273Z,98498.80
2023-03-31T20:43:52.043Z,98497.11
2023-03-31T20:46:20.959Z,98490.04
2023-03-31T20:48:51.524Z,98486.15
2023-03-31T20:51:22.050Z,98485.20
2023-03-31T20:53:52.654Z,98480.29
2023-03-31T20:56:24.663Z,98479.90
2023-03-31T20:58:54.376Z,98482.02
2023-03-31T21:01:22.941Z,98481.58
2023-03-31T21:03:51.114Z,98481.39
2023-03-31T21:06:20.382Z,98478.86
2023-03-31T21:09:06.193Z,98474.56
2023-03-31T21:11:34.460Z,98468.88
2023-03-31T21:14:03.032Z,98472.88
2023-03-31T21:16:31.069Z,98474.30
2023-03-31T21:18:59.422Z,98469.77
2023-03-31T21:21:28.376Z,98464.36
2023-03-31T21:23:56.454Z,98469.08
2023-03-31T21:26:25.179Z,98470.88
2023-03-31T21:28:53.656Z,98468.25
2023-03-31T21:31:23.438Z,98466.55
2023-03-31T21:33:52.441Z,98463.39
2023-03-31T21:36:22.087Z,98464.33
2023-03-31T21:38:51.987Z,98461.67
2023-03-31T21:41:22.541Z,98459.22
2023-03-31T21:43:51.120Z,98456.94
2023-03-31T21:46:21.185Z,98452.30
2023-03-31T21:48:50.061Z,98451.95
2023-03-31T21:51:19.420Z,98449.98
2023-03-31T21:53:47.936Z,98451.06
2023-03-31T21:56:16.433Z,98450.97
2023-03-31T21:58:44.424Z,98450.48
2023-03-31T22:01:12.663Z,98443.79
2023-03-31T22:03:41.783Z,98446.20
2023-03-31T22:06:10.625Z,98447.95
2023-03-31T22:08:39.033Z,98446.02
2023-03-31T22:11:09.678Z,98448.59
2023-03-31T22:13:38.298Z,98444.83
2023-03-31T22:16:17.948Z,98440.22
2023-03-31T22:18:47.031Z,98442.09
2023-03-31T22:21:17.912Z,98441.66
2023-03-31T22:23:46.271Z,98440.98
2023-03-31T22:26:14.310Z,98438.42
2023-03-31T22:28:42.430Z,98437.73
2023-03-31T22:31:10.581Z,98436.54
2023-03-31T22:33:38.565Z,98434.75
2023-03-31T22:36:07.855Z,98436.09
2023-03-31T22:38:35.837Z,98435.39
2023-03-31T22:41:04.413Z,98437.39
2023-03-31T22:43:33.364Z,98439.24
2023-03-31T22:46:04.749Z,98437.53
2023-03-31T22:48:32.786Z,98438.86
2023-03-31T22:51:05.084Z,98436.75
2023-03-31T22:53:33.237Z,98434.44
2023-03-31T22:56:06.018Z,98433.52
2023-03-31T22:58:34.649Z,98428.35
2023-03-31T23:01:02.800Z,98426.35
2023-03-31T23:03:30.954Z,98424.73
2023-03-31T23:06:02.964Z,98422.45
2023-03-31T23:08:31.228Z,98423.05
2023-03-31T23:11:00.782Z,98422.64
2023-03-31T23:13:30.169Z,98413.40
2023-03-31T23:16:04.108Z,98415.58
2023-03-31T23:18:32.105Z,98413.19
2023-03-31T23:21:03.498Z,98413.32
2023-03-31T23:23:31.465Z,98413.70
2023-03-31T23:26:01.943Z,98413.92
2023-03-31T23:28:30.991Z,98412.70
2023-03-31T23:30:59.005Z,98411.10
2023-03-31T23:33:28.645Z,98410.90
2023-03-31T23:36:00.500Z,98408.74
2023-03-31T23:38:28.626Z,98408.30
2023-03-31T23:40:57.069Z,98406.14
2023-03-31T23:43:26.823Z,98407.79
2023-03-31T23:45:55.780Z,98407.77
2023-03-31T23:48:23.775Z,98405.04
2023-03-31T23:50:51.790Z,98404.67
2023-03-31T23:53:19.799Z,98406.75
2023-03-31T23:55:55.940Z,98402.45
2023-03-31T23:58:24.407Z,98399.09
